Terminal Aerodrome Forecast
Issued by NWS

Home | Current Version | Previous Version | Text Only | Print | Product List | Glossary On
Versions: 1 2 3 4 5 6 7 8 9 10 11 12 13 14 15 16 17
000
FTUS41 KBTV 281721
TAFSLK
TAF
KSLK 281721Z 2818/2918 25006KT P6SM BKN035
     FM290000 VRB03KT P6SM SKC
     FM290600 00000KT 4SM BR SKC
      TEMPO 2908/2912 3/4SM BR BKN002
     FM291200 23005KT P6SM SCT045=

USA.gov is the U.S. government's official web portal to all federal, state and local government web resources and services.